sensor_id;sensor_type;location;lat;lon;timestamp;temperature;humidity
4374;DHT22;2201;51.100;6.814;2023-07-29T00:00:05;20.10;98.20
4374;DHT22;2201;51.100;6.814;2023-07-29T00:02:35;20.10;98.20
4374;DHT22;2201;51.100;6.814;2023-07-29T00:05:02;20.10;98.20
4374;DHT22;2201;51.100;6.814;2023-07-29T00:07:28;20.20;98.20
4374;DHT22;2201;51.100;6.814;2023-07-29T00:09:56;20.10;98.20
4374;DHT22;2201;51.100;6.814;2023-07-29T00:12:24;20.10;98.20
4374;DHT22;2201;51.100;6.814;2023-07-29T00:14:50;20.10;98.20
4374;DHT22;2201;51.100;6.814;2023-07-29T00:17:17;20.10;98.20
4374;DHT22;2201;51.100;6.814;2023-07-29T00:19:45;20.10;98.20
4374;DHT22;2201;51.100;6.814;2023-07-29T00:22:12;20.10;98.20
4374;DHT22;2201;51.100;6.814;2023-07-29T00:24:39;20.10;98.20
4374;DHT22;2201;51.100;6.814;2023-07-29T00:27:08;20.10;98.20
4374;DHT22;2201;51.100;6.814;2023-07-29T00:29:35;20.10;98.20
4374;DHT22;2201;51.100;6.814;2023-07-29T00:32:01;20.10;98.20
4374;DHT22;2201;51.100;6.814;2023-07-29T00:34:28;20.10;98.20
4374;DHT22;2201;51.100;6.814;2023-07-29T00:36:56;20.10;98.20
4374;DHT22;2201;51.100;6.814;2023-07-29T00:39:23;20.10;98.20
4374;DHT22;2201;51.100;6.814;2023-07-29T00:41:50;20.10;98.20
4374;DHT22;2201;51.100;6.814;2023-07-29T00:44:18;20.10;98.20
4374;DHT22;2201;51.100;6.814;2023-07-29T00:46:45;20.10;98.20
4374;DHT22;2201;51.100;6.814;2023-07-29T00:49:13;20.00;98.20
4374;DHT22;2201;51.100;6.814;2023-07-29T00:51:40;20.00;98.20
4374;DHT22;2201;51.100;6.814;2023-07-29T00:54:07;20.00;98.20
4374;DHT22;2201;51.100;6.814;2023-07-29T00:56:33;20.00;98.20
4374;DHT22;2201;51.100;6.814;2023-07-29T00:59:01;20.00;98.20
4374;DHT22;2201;51.100;6.814;2023-07-29T01:01:29;20.00;98.20
4374;DHT22;2201;51.100;6.814;2023-07-29T01:03:56;19.90;98.20
4374;DHT22;2201;51.100;6.814;2023-07-29T01:06:29;19.90;98.20
4374;DHT22;2201;51.100;6.814;2023-07-29T01:09:02;19.90;98.20
4374;DHT22;2201;51.100;6.814;2023-07-29T01:11:38;19.90;98.20
4374;DHT22;2201;51.100;6.814;2023-07-29T01:14:14;19.90;98.20
4374;DHT22;2201;51.100;6.814;2023-07-29T01:16:50;19.90;98.20
4374;DHT22;2201;51.100;6.814;2023-07-29T01:19:27;19.90;98.20
4374;DHT22;2201;51.100;6.814;2023-07-29T01:22:02;19.90;98.20
4374;DHT22;2201;51.100;6.814;2023-07-29T01:24:30;19.90;98.20
4374;DHT22;2201;51.100;6.814;2023-07-29T01:26:57;19.90;98.20
4374;DHT22;2201;51.100;6.814;2023-07-29T01:29:24;19.90;98.20
4374;DHT22;2201;51.100;6.814;2023-07-29T01:31:54;19.90;98.20
4374;DHT22;2201;51.100;6.814;2023-07-29T01:34:26;19.90;98.20
4374;DHT22;2201;51.100;6.814;2023-07-29T01:36:54;19.90;98.20
4374;DHT22;2201;51.100;6.814;2023-07-29T01:39:24;19.90;98.20
4374;DHT22;2201;51.100;6.814;2023-07-29T01:41:54;19.90;98.20
4374;DHT22;2201;51.100;6.814;2023-07-29T01:44:21;19.90;98.20
4374;DHT22;2201;51.100;6.814;2023-07-29T01:46:49;19.90;98.20
4374;DHT22;2201;51.100;6.814;2023-07-29T01:49:16;19.90;98.20
4374;DHT22;2201;51.100;6.814;2023-07-29T01:51:43;19.90;98.20
4374;DHT22;2201;51.100;6.814;2023-07-29T01:54:10;19.90;98.20
4374;DHT22;2201;51.100;6.814;2023-07-29T01:56:36;19.90;98.20
4374;DHT22;2201;51.100;6.814;2023-07-29T01:59:04;19.90;98.20
4374;DHT22;2201;51.100;6.814;2023-07-29T02:01:31;20.00;98.20
4374;DHT22;2201;51.100;6.814;2023-07-29T02:03:58;20.00;98.20
4374;DHT22;2201;51.100;6.814;2023-07-29T02:06:25;20.00;98.20
4374;DHT22;2201;51.100;6.814;2023-07-29T02:08:53;20.00;98.20
4374;DHT22;2201;51.100;6.814;2023-07-29T02:11:20;20.00;98.20
4374;DHT22;2201;51.100;6.814;2023-07-29T02:13:52;19.90;98.20
4374;DHT22;2201;51.100;6.814;2023-07-29T02:16:20;19.90;98.20
4374;DHT22;2201;51.100;6.814;2023-07-29T02:18:48;19.90;98.20
4374;DHT22;2201;51.100;6.814;2023-07-29T02:21:15;19.90;98.20
4374;DHT22;2201;51.100;6.814;2023-07-29T02:23:41;19.80;98.20
4374;DHT22;2201;51.100;6.814;2023-07-29T02:26:08;19.80;98.20
4374;DHT22;2201;51.100;6.814;2023-07-29T02:28:36;19.80;98.20
4374;DHT22;2201;51.100;6.814;2023-07-29T02:31:16;19.90;98.20
4374;DHT22;2201;51.100;6.814;2023-07-29T02:33:44;19.90;98.20
4374;DHT22;2201;51.100;6.814;2023-07-29T02:36:12;19.90;98.20
4374;DHT22;2201;51.100;6.814;2023-07-29T02:38:39;19.90;98.20
4374;DHT22;2201;51.100;6.814;2023-07-29T02:41:07;19.90;98.20
4374;DHT22;2201;51.100;6.814;2023-07-29T02:43:35;19.90;98.20
4374;DHT22;2201;51.100;6.814;2023-07-29T02:46:02;19.80;98.20
4374;DHT22;2201;51.100;6.814;2023-07-29T02:48:29;19.80;98.20
4374;DHT22;2201;51.100;6.814;2023-07-29T02:50:57;19.80;98.20
4374;DHT22;2201;51.100;6.814;2023-07-29T02:53:24;19.80;98.20
4374;DHT22;2201;51.100;6.814;2023-07-29T02:55:51;19.80;98.20
4374;DHT22;2201;51.100;6.814;2023-07-29T02:58:18;19.80;98.20
4374;DHT22;2201;51.100;6.814;2023-07-29T03:00:45;19.80;98.20
4374;DHT22;2201;51.100;6.814;2023-07-29T03:03:13;19.80;98.20
4374;DHT22;2201;51.100;6.814;2023-07-29T03:05:40;19.80;98.20
4374;DHT22;2201;51.100;6.814;2023-07-29T03:08:08;19.80;98.20
4374;DHT22;2201;51.100;6.814;2023-07-29T03:10:35;19.80;98.20
4374;DHT22;2201;51.100;6.814;2023-07-29T03:13:02;19.80;98.20
4374;DHT22;2201;51.100;6.814;2023-07-29T03:15:29;19.90;98.20
4374;DHT22;2201;51.100;6.814;2023-07-29T03:17:56;19.90;98.20
4374;DHT22;2201;51.100;6.814;2023-07-29T03:20:22;19.80;98.20
4374;DHT22;2201;51.100;6.814;2023-07-29T03:22:49;19.80;98.20
4374;DHT22;2201;51.100;6.814;2023-07-29T03:25:17;19.80;98.20
4374;DHT22;2201;51.100;6.814;2023-07-29T03:27:44;19.80;98.20
4374;DHT22;2201;51.100;6.814;2023-07-29T03:30:15;19.80;98.20
4374;DHT22;2201;51.100;6.814;2023-07-29T03:32:44;19.80;98.20
4374;DHT22;2201;51.100;6.814;2023-07-29T03:35:11;19.80;98.20
4374;DHT22;2201;51.100;6.814;2023-07-29T03:37:38;19.80;98.20
4374;DHT22;2201;51.100;6.814;2023-07-29T03:40:05;19.80;98.20
4374;DHT22;2201;51.100;6.814;2023-07-29T03:42:35;19.80;98.20
4374;DHT22;2201;51.100;6.814;2023-07-29T03:45:03;19.80;98.20
4374;DHT22;2201;51.100;6.814;2023-07-29T03:47:30;19.80;98.20
4374;DHT22;2201;51.100;6.814;2023-07-29T03:49:56;19.80;98.20
4374;DHT22;2201;51.100;6.814;2023-07-29T03:52:23;19.80;98.20
4374;DHT22;2201;51.100;6.814;2023-07-29T03:54:50;19.80;98.20
4374;DHT22;2201;51.100;6.814;2023-07-29T03:57:17;19.80;98.20
4374;DHT22;2201;51.100;6.814;2023-07-29T03:59:45;19.80;98.20
4374;DHT22;2201;51.100;6.814;2023-07-29T04:02:11;19.80;98.20
4374;DHT22;2201;51.100;6.814;2023-07-29T04:04:38;19.80;98.20
4374;DHT22;2201;51.100;6.814;2023-07-29T04:07:07;19.80;98.20
4374;DHT22;2201;51.100;6.814;2023-07-29T04:09:34;19.70;98.20
4374;DHT22;2201;51.100;6.814;2023-07-29T04:12:00;19.80;98.20
4374;DHT22;2201;51.100;6.814;2023-07-29T04:14:27;19.70;98.20
4374;DHT22;2201;51.100;6.814;2023-07-29T04:16:55;19.80;98.20
4374;DHT22;2201;51.100;6.814;2023-07-29T04:19:22;19.70;98.20
4374;DHT22;2201;51.100;6.814;2023-07-29T04:21:49;19.70;98.20
4374;DHT22;2201;51.100;6.814;2023-07-29T04:24:16;19.70;98.20
4374;DHT22;2201;51.100;6.814;2023-07-29T04:26:45;19.70;98.20
4374;DHT22;2201;51.100;6.814;2023-07-29T04:29:12;19.70;98.20
4374;DHT22;2201;51.100;6.814;2023-07-29T04:31:39;19.60;98.20
4374;DHT22;2201;51.100;6.814;2023-07-29T04:34:07;19.70;98.20
4374;DHT22;2201;51.100;6.814;2023-07-29T04:36:34;19.60;98.20
4374;DHT22;2201;51.100;6.814;2023-07-29T04:39:01;19.60;98.20
4374;DHT22;2201;51.100;6.814;2023-07-29T04:41:28;19.60;98.20
4374;DHT22;2201;51.100;6.814;2023-07-29T04:43:54;19.60;98.20
4374;DHT22;2201;51.100;6.814;2023-07-29T04:46:21;19.60;98.20
4374;DHT22;2201;51.100;6.814;2023-07-29T04:48:48;19.60;98.20
4374;DHT22;2201;51.100;6.814;2023-07-29T04:51:16;19.60;98.20
4374;DHT22;2201;51.100;6.814;2023-07-29T04:53:43;19.60;98.20
4374;DHT22;2201;51.100;6.814;2023-07-29T04:56:10;19.70;98.20
4374;DHT22;2201;51.100;6.814;2023-07-29T04:58:37;19.70;98.20
4374;DHT22;2201;51.100;6.814;2023-07-29T05:01:04;19.70;98.20
4374;DHT22;2201;51.100;6.814;2023-07-29T05:03:31;19.70;98.20
4374;DHT22;2201;51.100;6.814;2023-07-29T05:05:58;19.70;98.20
4374;DHT22;2201;51.100;6.814;2023-07-29T05:08:26;19.70;98.20
4374;DHT22;2201;51.100;6.814;2023-07-29T05:10:54;19.80;98.20
4374;DHT22;2201;51.100;6.814;2023-07-29T05:13:22;19.80;98.20
4374;DHT22;2201;51.100;6.814;2023-07-29T05:15:49;19.80;98.20
4374;DHT22;2201;51.100;6.814;2023-07-29T05:18:16;19.80;98.20
4374;DHT22;2201;51.100;6.814;2023-07-29T05:20:43;19.90;98.20
4374;DHT22;2201;51.100;6.814;2023-07-29T05:23:10;19.90;98.20
4374;DHT22;2201;51.100;6.814;2023-07-29T05:25:38;19.90;98.20
4374;DHT22;2201;51.100;6.814;2023-07-29T05:28:05;19.90;98.20
4374;DHT22;2201;51.100;6.814;2023-07-29T05:30:32;20.00;98.20
4374;DHT22;2201;51.100;6.814;2023-07-29T05:33:02;20.00;98.20
4374;DHT22;2201;51.100;6.814;2023-07-29T05:35:29;20.00;98.20
4374;DHT22;2201;51.100;6.814;2023-07-29T05:37:56;20.00;98.20
4374;DHT22;2201;51.100;6.814;2023-07-29T05:40:23;19.90;98.20
4374;DHT22;2201;51.100;6.814;2023-07-29T05:42:51;20.00;98.20
4374;DHT22;2201;51.100;6.814;2023-07-29T05:45:18;19.90;98.20
4374;DHT22;2201;51.100;6.814;2023-07-29T05:47:45;19.90;98.20
4374;DHT22;2201;51.100;6.814;2023-07-29T05:50:12;20.00;98.20
4374;DHT22;2201;51.100;6.814;2023-07-29T05:52:39;20.00;98.20
4374;DHT22;2201;51.100;6.814;2023-07-29T05:55:07;19.90;98.20
4374;DHT22;2201;51.100;6.814;2023-07-29T05:57:34;20.00;98.20
4374;DHT22;2201;51.100;6.814;2023-07-29T06:00:02;20.00;98.20
4374;DHT22;2201;51.100;6.814;2023-07-29T06:02:29;20.00;98.20
4374;DHT22;2201;51.100;6.814;2023-07-29T06:04:56;20.00;98.20
4374;DHT22;2201;51.100;6.814;2023-07-29T06:07:23;19.90;98.20
4374;DHT22;2201;51.100;6.814;2023-07-29T06:09:49;19.90;98.20
4374;DHT22;2201;51.100;6.814;2023-07-29T06:12:19;19.90;98.20
4374;DHT22;2201;51.100;6.814;2023-07-29T06:14:45;19.90;98.20
4374;DHT22;2201;51.100;6.814;2023-07-29T06:17:14;19.90;98.20
4374;DHT22;2201;51.100;6.814;2023-07-29T06:19:40;19.90;98.20
4374;DHT22;2201;51.100;6.814;2023-07-29T06:22:07;19.90;98.20
4374;DHT22;2201;51.100;6.814;2023-07-29T06:24:36;19.90;98.20
4374;DHT22;2201;51.100;6.814;2023-07-29T06:27:03;19.90;98.20
4374;DHT22;2201;51.100;6.814;2023-07-29T06:29:30;19.90;98.20
4374;DHT22;2201;51.100;6.814;2023-07-29T06:31:58;19.90;98.20
4374;DHT22;2201;51.100;6.814;2023-07-29T06:34:27;19.80;98.20
4374;DHT22;2201;51.100;6.814;2023-07-29T06:36:54;19.80;98.20
4374;DHT22;2201;51.100;6.814;2023-07-29T06:39:20;19.80;98.20
4374;DHT22;2201;51.100;6.814;2023-07-29T06:41:47;19.80;98.20
4374;DHT22;2201;51.100;6.814;2023-07-29T06:44:14;19.90;98.20
4374;DHT22;2201;51.100;6.814;2023-07-29T06:46:41;19.90;98.20
4374;DHT22;2201;51.100;6.814;2023-07-29T06:49:08;19.90;98.20
4374;DHT22;2201;51.100;6.814;2023-07-29T06:51:36;19.90;98.20
4374;DHT22;2201;51.100;6.814;2023-07-29T06:54:03;20.00;98.20
4374;DHT22;2201;51.100;6.814;2023-07-29T06:56:29;20.00;98.20
4374;DHT22;2201;51.100;6.814;2023-07-29T06:58:56;20.00;98.20
4374;DHT22;2201;51.100;6.814;2023-07-29T07:01:23;20.10;98.20
4374;DHT22;2201;51.100;6.814;2023-07-29T07:03:52;20.10;98.20
4374;DHT22;2201;51.100;6.814;2023-07-29T07:06:20;20.20;98.20
4374;DHT22;2201;51.100;6.814;2023-07-29T07:08:48;20.30;98.20
4374;DHT22;2201;51.100;6.814;2023-07-29T07:11:15;20.40;98.20
4374;DHT22;2201;51.100;6.814;2023-07-29T07:13:45;20.40;98.20
4374;DHT22;2201;51.100;6.814;2023-07-29T07:16:12;20.50;98.20
4374;DHT22;2201;51.100;6.814;2023-07-29T07:18:39;20.60;98.20
4374;DHT22;2201;51.100;6.814;2023-07-29T07:21:06;20.70;98.20
4374;DHT22;2201;51.100;6.814;2023-07-29T07:23:32;20.80;98.20
4374;DHT22;2201;51.100;6.814;2023-07-29T07:26:00;20.90;98.20
4374;DHT22;2201;51.100;6.814;2023-07-29T07:28:28;21.00;98.20
4374;DHT22;2201;51.100;6.814;2023-07-29T07:30:54;21.10;98.20
4374;DHT22;2201;51.100;6.814;2023-07-29T07:33:21;21.20;98.20
4374;DHT22;2201;51.100;6.814;2023-07-29T07:35:48;21.20;98.20
4374;DHT22;2201;51.100;6.814;2023-07-29T07:38:15;21.10;98.20
4374;DHT22;2201;51.100;6.814;2023-07-29T07:40:42;21.10;98.20
4374;DHT22;2201;51.100;6.814;2023-07-29T07:43:10;21.20;98.20
4374;DHT22;2201;51.100;6.814;2023-07-29T07:45:36;21.30;98.20
4374;DHT22;2201;51.100;6.814;2023-07-29T07:48:04;21.30;98.20
4374;DHT22;2201;51.100;6.814;2023-07-29T07:50:30;21.30;98.20
4374;DHT22;2201;51.100;6.814;2023-07-29T07:52:57;21.30;98.20
4374;DHT22;2201;51.100;6.814;2023-07-29T07:55:24;21.30;98.20
4374;DHT22;2201;51.100;6.814;2023-07-29T07:57:51;21.30;98.20
4374;DHT22;2201;51.100;6.814;2023-07-29T08:00:19;21.50;98.20
4374;DHT22;2201;51.100;6.814;2023-07-29T08:02:46;21.50;98.20
4374;DHT22;2201;51.100;6.814;2023-07-29T08:05:13;21.50;98.20
4374;DHT22;2201;51.100;6.814;2023-07-29T08:07:40;21.60;98.20
4374;DHT22;2201;51.100;6.814;2023-07-29T08:10:07;21.70;98.20
4374;DHT22;2201;51.100;6.814;2023-07-29T08:12:34;21.80;98.20
4374;DHT22;2201;51.100;6.814;2023-07-29T08:15:01;21.90;98.20
4374;DHT22;2201;51.100;6.814;2023-07-29T08:17:29;22.10;98.20
4374;DHT22;2201;51.100;6.814;2023-07-29T08:19:56;22.40;98.20
4374;DHT22;2201;51.100;6.814;2023-07-29T08:22:23;22.70;98.20
4374;DHT22;2201;51.100;6.814;2023-07-29T08:24:50;23.10;98.20
4374;DHT22;2201;51.100;6.814;2023-07-29T08:27:18;23.20;98.20
4374;DHT22;2201;51.100;6.814;2023-07-29T08:29:44;23.50;98.20
4374;DHT22;2201;51.100;6.814;2023-07-29T08:32:11;23.80;98.20
4374;DHT22;2201;51.100;6.814;2023-07-29T08:34:39;23.90;98.20
4374;DHT22;2201;51.100;6.814;2023-07-29T08:37:06;24.10;98.20
4374;DHT22;2201;51.100;6.814;2023-07-29T08:39:33;24.20;98.20
4374;DHT22;2201;51.100;6.814;2023-07-29T08:42:04;24.20;98.20
4374;DHT22;2201;51.100;6.814;2023-07-29T08:44:36;24.20;98.20
4374;DHT22;2201;51.100;6.814;2023-07-29T08:47:06;24.20;98.20
4374;DHT22;2201;51.100;6.814;2023-07-29T08:49:33;24.10;98.20
4374;DHT22;2201;51.100;6.814;2023-07-29T08:52:02;24.00;98.20
4374;DHT22;2201;51.100;6.814;2023-07-29T08:54:30;23.90;98.20
4374;DHT22;2201;51.100;6.814;2023-07-29T08:56:58;23.90;98.20
4374;DHT22;2201;51.100;6.814;2023-07-29T08:59:25;23.80;98.20
4374;DHT22;2201;51.100;6.814;2023-07-29T09:01:54;23.80;98.20
4374;DHT22;2201;51.100;6.814;2023-07-29T09:04:22;23.80;98.20
4374;DHT22;2201;51.100;6.814;2023-07-29T09:06:51;23.80;98.20
4374;DHT22;2201;51.100;6.814;2023-07-29T09:09:21;23.80;98.20
4374;DHT22;2201;51.100;6.814;2023-07-29T09:11:48;23.70;98.20
4374;DHT22;2201;51.100;6.814;2023-07-29T09:14:15;23.70;98.20
4374;DHT22;2201;51.100;6.814;2023-07-29T09:16:42;23.70;98.20
4374;DHT22;2201;51.100;6.814;2023-07-29T09:19:10;23.70;98.20
4374;DHT22;2201;51.100;6.814;2023-07-29T09:21:39;23.80;98.20
4374;DHT22;2201;51.100;6.814;2023-07-29T09:24:15;23.90;98.20
4374;DHT22;2201;51.100;6.814;2023-07-29T09:26:50;24.10;98.20
4374;DHT22;2201;51.100;6.814;2023-07-29T09:29:22;24.30;98.20
4374;DHT22;2201;51.100;6.814;2023-07-29T09:31:50;24.40;98.20
4374;DHT22;2201;51.100;6.814;2023-07-29T09:34:20;24.60;98.20
4374;DHT22;2201;51.100;6.814;2023-07-29T09:36:58;24.70;98.20
4374;DHT22;2201;51.100;6.814;2023-07-29T09:39:28;24.90;98.20
4374;DHT22;2201;51.100;6.814;2023-07-29T09:41:56;25.00;98.20
4374;DHT22;2201;51.100;6.814;2023-07-29T09:44:23;24.80;98.20
4374;DHT22;2201;51.100;6.814;2023-07-29T09:46:50;24.60;98.20
4374;DHT22;2201;51.100;6.814;2023-07-29T09:49:17;24.40;98.20
4374;DHT22;2201;51.100;6.814;2023-07-29T09:51:44;24.30;98.20
4374;DHT22;2201;51.100;6.814;2023-07-29T09:54:11;24.10;98.20
4374;DHT22;2201;51.100;6.814;2023-07-29T09:56:41;24.00;98.20
4374;DHT22;2201;51.100;6.814;2023-07-29T09:59:11;23.90;98.20
4374;DHT22;2201;51.100;6.814;2023-07-29T10:01:39;23.90;98.20
4374;DHT22;2201;51.100;6.814;2023-07-29T10:04:07;23.90;98.20
4374;DHT22;2201;51.100;6.814;2023-07-29T10:06:35;23.90;98.20
4374;DHT22;2201;51.100;6.814;2023-07-29T10:09:02;24.00;98.20
4374;DHT22;2201;51.100;6.814;2023-07-29T10:11:30;24.00;98.20
4374;DHT22;2201;51.100;6.814;2023-07-29T10:13:58;23.90;98.20
4374;DHT22;2201;51.100;6.814;2023-07-29T10:16:27;23.90;98.20
4374;DHT22;2201;51.100;6.814;2023-07-29T10:18:54;23.80;98.20
4374;DHT22;2201;51.100;6.814;2023-07-29T10:21:22;23.80;98.20
4374;DHT22;2201;51.100;6.814;2023-07-29T10:23:53;23.80;98.20
4374;DHT22;2201;51.100;6.814;2023-07-29T10:26:23;23.80;98.20
4374;DHT22;2201;51.100;6.814;2023-07-29T10:28:52;23.70;98.20
4374;DHT22;2201;51.100;6.814;2023-07-29T10:31:22;23.80;98.20
4374;DHT22;2201;51.100;6.814;2023-07-29T10:33:51;23.90;98.20
4374;DHT22;2201;51.100;6.814;2023-07-29T10:36:18;23.90;98.20
4374;DHT22;2201;51.100;6.814;2023-07-29T10:38:52;23.90;98.20
4374;DHT22;2201;51.100;6.814;2023-07-29T10:41:22;24.00;98.20
4374;DHT22;2201;51.100;6.814;2023-07-29T10:43:50;24.00;98.20
4374;DHT22;2201;51.100;6.814;2023-07-29T10:46:18;24.00;98.20
4374;DHT22;2201;51.100;6.814;2023-07-29T10:48:55;24.00;98.20
4374;DHT22;2201;51.100;6.814;2023-07-29T10:51:28;24.10;98.20
4374;DHT22;2201;51.100;6.814;2023-07-29T10:54:01;24.20;98.20
4374;DHT22;2201;51.100;6.814;2023-07-29T10:56:30;24.20;98.20
4374;DHT22;2201;51.100;6.814;2023-07-29T10:58:58;24.20;98.20
4374;DHT22;2201;51.100;6.814;2023-07-29T11:01:29;24.20;98.20
4374;DHT22;2201;51.100;6.814;2023-07-29T11:04:24;24.50;98.20
4374;DHT22;2201;51.100;6.814;2023-07-29T11:07:25;25.00;98.20
4374;DHT22;2201;51.100;6.814;2023-07-29T11:10:00;25.60;98.20
4374;DHT22;2201;51.100;6.814;2023-07-29T11:12:41;25.80;96.80
4374;DHT22;2201;51.100;6.814;2023-07-29T11:15:21;26.00;97.10
4374;DHT22;2201;51.100;6.814;2023-07-29T11:17:51;26.00;97.00
4374;DHT22;2201;51.100;6.814;2023-07-29T11:20:20;25.90;97.00
4374;DHT22;2201;51.100;6.814;2023-07-29T11:22:48;25.80;97.90
4374;DHT22;2201;51.100;6.814;2023-07-29T11:25:25;25.50;97.20
4374;DHT22;2201;51.100;6.814;2023-07-29T11:27:53;25.40;97.60
4374;DHT22;2201;51.100;6.814;2023-07-29T11:30:21;25.30;98.20
4374;DHT22;2201;51.100;6.814;2023-07-29T11:32:49;25.20;97.70
4374;DHT22;2201;51.100;6.814;2023-07-29T11:35:19;25.10;98.20
4374;DHT22;2201;51.100;6.814;2023-07-29T11:37:48;25.10;98.20
4374;DHT22;2201;51.100;6.814;2023-07-29T11:40:16;25.20;98.20
4374;DHT22;2201;51.100;6.814;2023-07-29T11:42:44;25.20;98.20
4374;DHT22;2201;51.100;6.814;2023-07-29T11:45:11;25.20;98.20
4374;DHT22;2201;51.100;6.814;2023-07-29T11:47:39;25.10;98.00
4374;DHT22;2201;51.100;6.814;2023-07-29T11:50:07;25.10;98.20
4374;DHT22;2201;51.100;6.814;2023-07-29T11:52:37;25.20;98.20
4374;DHT22;2201;51.100;6.814;2023-07-29T11:55:05;25.60;97.50
4374;DHT22;2201;51.100;6.814;2023-07-29T11:57:35;25.90;96.40
4374;DHT22;2201;51.100;6.814;2023-07-29T12:00:03;26.20;96.00
4374;DHT22;2201;51.100;6.814;2023-07-29T12:02:32;26.60;95.30
4374;DHT22;2201;51.100;6.814;2023-07-29T12:05:00;27.00;95.50
4374;DHT22;2201;51.100;6.814;2023-07-29T12:07:27;27.40;94.30
4374;DHT22;2201;51.100;6.814;2023-07-29T12:09:56;27.60;92.60
4374;DHT22;2201;51.100;6.814;2023-07-29T12:12:23;27.60;91.70
4374;DHT22;2201;51.100;6.814;2023-07-29T12:14:50;27.60;94.10
4374;DHT22;2201;51.100;6.814;2023-07-29T12:17:18;27.60;92.50
4374;DHT22;2201;51.100;6.814;2023-07-29T12:19:45;27.50;91.90
4374;DHT22;2201;51.100;6.814;2023-07-29T12:22:17;27.40;93.60
4374;DHT22;2201;51.100;6.814;2023-07-29T12:24:59;27.30;91.90
4374;DHT22;2201;51.100;6.814;2023-07-29T12:27:30;27.20;93.40
4374;DHT22;2201;51.100;6.814;2023-07-29T12:29:58;27.40;91.40
4374;DHT22;2201;51.100;6.814;2023-07-29T12:32:29;27.70;90.70
4374;DHT22;2201;51.100;6.814;2023-07-29T12:34:56;28.00;93.20
4374;DHT22;2201;51.100;6.814;2023-07-29T12:37:31;28.40;90.80
4374;DHT22;2201;51.100;6.814;2023-07-29T12:40:21;28.60;88.70
4374;DHT22;2201;51.100;6.814;2023-07-29T12:42:49;28.70;89.30
4374;DHT22;2201;51.100;6.814;2023-07-29T12:45:16;28.80;89.20
4374;DHT22;2201;51.100;6.814;2023-07-29T12:47:44;28.60;88.50
4374;DHT22;2201;51.100;6.814;2023-07-29T12:50:11;28.30;88.50
4374;DHT22;2201;51.100;6.814;2023-07-29T12:52:38;28.00;89.30
4374;DHT22;2201;51.100;6.814;2023-07-29T12:55:06;27.80;90.80
4374;DHT22;2201;51.100;6.814;2023-07-29T12:57:36;27.60;91.70
4374;DHT22;2201;51.100;6.814;2023-07-29T13:00:04;27.50;91.00
4374;DHT22;2201;51.100;6.814;2023-07-29T13:02:31;27.40;91.80
4374;DHT22;2201;51.100;6.814;2023-07-29T13:04:58;27.20;91.40
4374;DHT22;2201;51.100;6.814;2023-07-29T13:07:25;27.10;92.50
4374;DHT22;2201;51.100;6.814;2023-07-29T13:09:52;27.10;92.70
4374;DHT22;2201;51.100;6.814;2023-07-29T13:12:20;27.00;93.40
4374;DHT22;2201;51.100;6.814;2023-07-29T13:14:48;26.80;93.40
4374;DHT22;2201;51.100;6.814;2023-07-29T13:17:15;26.70;94.60
4374;DHT22;2201;51.100;6.814;2023-07-29T13:19:42;26.50;94.90
4374;DHT22;2201;51.100;6.814;2023-07-29T13:25:20;26.10;95.60
4374;DHT22;2201;51.100;6.814;2023-07-29T13:27:47;25.90;96.30
4374;DHT22;2201;51.100;6.814;2023-07-29T13:30:15;25.70;98.10
4374;DHT22;2201;51.100;6.814;2023-07-29T13:32:42;25.50;98.20
4374;DHT22;2201;51.100;6.814;2023-07-29T13:35:09;25.30;98.20
4374;DHT22;2201;51.100;6.814;2023-07-29T13:37:36;25.10;98.20
4374;DHT22;2201;51.100;6.814;2023-07-29T13:40:04;24.90;98.20
4374;DHT22;2201;51.100;6.814;2023-07-29T13:42:31;24.80;98.20
4374;DHT22;2201;51.100;6.814;2023-07-29T13:44:58;24.70;98.20
4374;DHT22;2201;51.100;6.814;2023-07-29T13:47:26;24.70;98.20
4374;DHT22;2201;51.100;6.814;2023-07-29T13:49:53;24.60;98.20
4374;DHT22;2201;51.100;6.814;2023-07-29T13:52:20;24.50;98.20
4374;DHT22;2201;51.100;6.814;2023-07-29T13:54:47;24.40;98.20
4374;DHT22;2201;51.100;6.814;2023-07-29T13:57:13;24.20;98.20
4374;DHT22;2201;51.100;6.814;2023-07-29T13:59:40;23.90;98.20
4374;DHT22;2201;51.100;6.814;2023-07-29T14:02:08;23.80;98.20
4374;DHT22;2201;51.100;6.814;2023-07-29T14:04:36;23.70;98.20
4374;DHT22;2201;51.100;6.814;2023-07-29T14:07:03;23.60;98.20
4374;DHT22;2201;51.100;6.814;2023-07-29T14:09:30;23.60;98.20
4374;DHT22;2201;51.100;6.814;2023-07-29T14:11:57;23.70;98.20
4374;DHT22;2201;51.100;6.814;2023-07-29T14:14:24;23.80;98.20
4374;DHT22;2201;51.100;6.814;2023-07-29T14:16:51;24.00;98.20
4374;DHT22;2201;51.100;6.814;2023-07-29T14:19:20;24.40;98.20
4374;DHT22;2201;51.100;6.814;2023-07-29T14:21:48;24.70;98.20
4374;DHT22;2201;51.100;6.814;2023-07-29T14:27:44;25.10;98.20
4374;DHT22;2201;51.100;6.814;2023-07-29T14:30:11;25.50;98.20
4374;DHT22;2201;51.100;6.814;2023-07-29T14:32:37;25.90;98.20
4374;DHT22;2201;51.100;6.814;2023-07-29T14:35:05;26.20;98.20
4374;DHT22;2201;51.100;6.814;2023-07-29T14:37:52;26.40;98.20
4374;DHT22;2201;51.100;6.814;2023-07-29T14:40:19;26.30;98.20
4374;DHT22;2201;51.100;6.814;2023-07-29T14:42:45;26.30;98.20
4374;DHT22;2201;51.100;6.814;2023-07-29T14:45:12;26.30;98.20
4374;DHT22;2201;51.100;6.814;2023-07-29T14:47:45;26.40;98.20
4374;DHT22;2201;51.100;6.814;2023-07-29T14:50:12;26.40;98.20
4374;DHT22;2201;51.100;6.814;2023-07-29T14:52:39;26.40;98.20
4374;DHT22;2201;51.100;6.814;2023-07-29T14:55:07;26.30;98.20
4374;DHT22;2201;51.100;6.814;2023-07-29T14:57:34;26.40;98.20
4374;DHT22;2201;51.100;6.814;2023-07-29T15:00:01;26.50;98.20
4374;DHT22;2201;51.100;6.814;2023-07-29T15:02:29;26.50;98.20
4374;DHT22;2201;51.100;6.814;2023-07-29T15:04:56;26.50;98.20
4374;DHT22;2201;51.100;6.814;2023-07-29T15:07:23;26.50;98.20
4374;DHT22;2201;51.100;6.814;2023-07-29T15:09:49;26.40;98.20
4374;DHT22;2201;51.100;6.814;2023-07-29T15:12:18;26.30;98.20
4374;DHT22;2201;51.100;6.814;2023-07-29T15:14:47;26.20;98.20
4374;DHT22;2201;51.100;6.814;2023-07-29T15:17:14;26.20;98.20
4374;DHT22;2201;51.100;6.814;2023-07-29T15:19:41;26.10;98.20
4374;DHT22;2201;51.100;6.814;2023-07-29T15:22:08;26.10;98.20
4374;DHT22;2201;51.100;6.814;2023-07-29T15:24:37;26.00;98.20
4374;DHT22;2201;51.100;6.814;2023-07-29T15:27:08;25.80;98.20
4374;DHT22;2201;51.100;6.814;2023-07-29T15:29:36;25.60;98.20
4374;DHT22;2201;51.100;6.814;2023-07-29T15:32:04;25.60;98.20
4374;DHT22;2201;51.100;6.814;2023-07-29T15:34:31;25.50;98.20
4374;DHT22;2201;51.100;6.814;2023-07-29T15:37:00;25.50;98.20
4374;DHT22;2201;51.100;6.814;2023-07-29T15:39:30;25.60;98.20
4374;DHT22;2201;51.100;6.814;2023-07-29T15:41:57;25.70;98.20
4374;DHT22;2201;51.100;6.814;2023-07-29T15:44:24;25.80;98.20
4374;DHT22;2201;51.100;6.814;2023-07-29T15:46:53;25.80;98.20
4374;DHT22;2201;51.100;6.814;2023-07-29T15:49:21;25.80;98.20
4374;DHT22;2201;51.100;6.814;2023-07-29T15:51:49;25.80;98.20
4374;DHT22;2201;51.100;6.814;2023-07-29T15:54:17;25.80;98.20
4374;DHT22;2201;51.100;6.814;2023-07-29T15:56:44;25.80;98.20
4374;DHT22;2201;51.100;6.814;2023-07-29T15:59:11;25.80;98.20
4374;DHT22;2201;51.100;6.814;2023-07-29T16:01:37;25.70;98.20
4374;DHT22;2201;51.100;6.814;2023-07-29T16:04:06;25.70;98.20
4374;DHT22;2201;51.100;6.814;2023-07-29T16:06:33;25.80;98.20
4374;DHT22;2201;51.100;6.814;2023-07-29T16:09:01;25.90;98.20
4374;DHT22;2201;51.100;6.814;2023-07-29T16:11:32;26.20;98.20
4374;DHT22;2201;51.100;6.814;2023-07-29T16:13:59;26.40;98.20